• Join FlightAware (Why Join?)
  • Login
  • US Flag 
05:58AM EDT


 

Airport Tracker/Info


-or-


 

Live Flight TrackerFlight Track Log ✈ RPA3228 ✈ 19-Jul-2013 ✈ KDCA - KBUF

Flight Track Log - Related Links

Times and Time Zones

All times are in EDT time to prevent confusion due to time zone crossing. See the RPA3228 flight status page for this flight to view local times or setup timezone preferences in your user account.

Time Position Orientation Groundspeed Altitude Reporting Facility
EDT Latitude Longitude Course Direction KTS MPH feet Rate Location/Type
10:37AM 38.7667 -77.0667 229° Southwest 253 291 4,400  Level Potomac TRACON
10:38AM 39.0967 -77.1650 339° North  Level FlightAware Approximate
10:38AM 38.7500 -77.1500 256° West 277 319 7,000  Level Potomac TRACON
10:39AM 39.1810 -77.2149 330° Northwest  Level FlightAware Approximate
10:39AM 38.8000 -77.2333 308° West 285 328 10,000  Level Potomac TRACON
10:40AM 39.2703 -77.2538 337° Northwest  Level FlightAware Approximate
10:40AM 38.8500 -77.3333 303° West 319 367 12,200  Level Potomac TRACON
10:41AM 39.3572 -77.3021 337° Northwest  Level FlightAware Approximate
10:41AM 38.9333 -77.4000 328° Northwest 295 339 14,800  Level Potomac TRACON
10:42AM 39.4409 -77.3538 339° North  Level FlightAware Approximate
10:42AM 38.9833 -77.4333 333° Northwest 356 410 15,000  Level Potomac TRACON
10:43AM 39.1333 -77.4333 360° North 392 451 17,000 1,080 Climbing Potomac TRACON
10:45AM 39.3369 -77.4403 358° North 400 460 18,100 1,020 Climbing Washington Center
10:46AM 39.4494 -77.4461 358° North 400 460 20,000 1,860 Climbing Washington Center
10:47AM 39.5661 -77.4517 358° North 405 466 21,900 1,200 Climbing Washington Center
10:49AM 39.7425 -77.4561 359° North 409 471 23,000 660 Climbing New York Center
10:50AM 39.8656 -77.4569 360° North 434 499 23,600 960 Climbing New York Center
10:51AM 39.9869 -77.4878 349° North 434 499 24,900 1,200 Climbing New York Center
10:52AM 40.1072 -77.5372 343° North 445 512 26,000 480 Climbing New York Center
10:53AM 40.2561 -77.5925 344° North 455 524 26,000  Level New York Center
10:54AM 40.3783 -77.6400 344° North 455 524 26,000  Level New York Center
10:56AM 40.6489 -77.7450 344° North 464 534 26,000  Level Cleveland Center
10:57AM 40.7711 -77.7919 344° North 464 534 26,000  Level Cleveland Center
10:58AM 40.8825 -77.8339 344° North 464 534 26,000  Level Cleveland Center
10:59AM 41.0089 -77.8808 344° North 459 528 26,000  Level Cleveland Center
11:00AM 41.1308 -77.9283 344° North 459 528 26,000  Level Cleveland Center
11:01AM 41.2550 -77.9783 343° North 459 528 26,000  Level Cleveland Center
11:02AM 41.3789 -78.0233 345° North 459 528 26,000  Level Cleveland Center
11:03AM 41.5011 -78.0739 343° North 459 528 26,000  Level Cleveland Center
11:04AM 41.6250 -78.1219 344° North 459 528 26,000 -600 Level Cleveland Center
11:05AM 41.7492 -78.1700 344° North 459 528 24,900 -1,980 Descending Cleveland Center
11:06AM 41.8794 -78.2239 343° North 459 528 22,100 -2,580 Descending Cleveland Center
11:07AM 41.9931 -78.2672 344° North 447 514 19,800 -2,220 Descending Cleveland Center
11:08AM 42.1044 -78.3133 343° North 426 490 17,700 -1,980 Descending Cleveland Center
11:09AM 42.1989 -78.3522 343° North 412 474 15,900 -1,980 Descending Cleveland Center
11:10AM 42.3019 -78.3906 345° North 392 451 13,800 -2,460 Descending Cleveland Center
11:11AM 42.3983 -78.4294 343° North 380 437 11,000 -1,440 Descending Cleveland Center
11:12AM 42.4931 -78.4742 341° North 368 423 11,000  Level Cleveland Center
11:13AM 42.5731 -78.5164 339° North 340 391 11,000 -180 Level Cleveland Center
11:14AM 42.6628 -78.5219 357° North 318 366 10,700 -900 Descending Cleveland Center
11:15AM 42.7503 -78.5192 North 312 359 9,200 -1,920 Descending Cleveland Center
11:16AM 42.8375 -78.5078 North 294 338 6,900 -2,700 Descending Cleveland Center
11:17AM 42.9131 -78.5336 346° North 281 323 3,900 -2,340 Descending Cleveland Center
11:18AM 42.9783 -78.5769 334° Northwest 270 311 2,300 -1,620 Descending Cleveland Center